Redesdale, Australia
Current Conditions -  °F | °C
As of 4:00 AM on Wednesday 22 Oct 2014 (Local Time) from YMML Reporting Station
Clear Clear  
Wind Chill: 64°   Ceiling: Unl
Heat Index: 64°   Visibility: 6mi
Dew Point: 48°   Wind: 18mph
Humidity: 56%   Direction: 360°N
Pressure: 30.09"   Gusts: NA
Location:  37.02°S, 144.53°E
Report Text: YMML 211700Z 36016KT CAVOK 18/09 Q1019 NOSIG
Loading
Personal Weather Stations






























Interactive Weather Map
Tropical Storm Tracking
New forecast layout! Learn more

10-Day Weather Forecast

Advertisements
Track Severe Weather on mobile